sensor_id;sensor_type;location;lat;lon;timestamp;temperature;humidity
20091;DHT22;10205;49.678;6.560;2023-05-18T00:01:58;17.70;43.10
20091;DHT22;10205;49.678;6.560;2023-05-18T00:04:27;17.60;43.20
20091;DHT22;10205;49.678;6.560;2023-05-18T00:06:54;17.60;43.30
20091;DHT22;10205;49.678;6.560;2023-05-18T00:09:26;17.50;43.30
20091;DHT22;10205;49.678;6.560;2023-05-18T00:11:53;17.50;43.50
20091;DHT22;10205;49.678;6.560;2023-05-18T00:14:21;17.40;43.50
20091;DHT22;10205;49.678;6.560;2023-05-18T00:16:48;17.40;43.50
20091;DHT22;10205;49.678;6.560;2023-05-18T00:19:15;17.30;43.60
20091;DHT22;10205;49.678;6.560;2023-05-18T00:21:44;17.30;43.60
20091;DHT22;10205;49.678;6.560;2023-05-18T00:24:13;17.30;43.80
20091;DHT22;10205;49.678;6.560;2023-05-18T00:26:43;17.20;43.80
20091;DHT22;10205;49.678;6.560;2023-05-18T00:29:11;17.10;43.90
20091;DHT22;10205;49.678;6.560;2023-05-18T00:31:38;17.10;43.90
20091;DHT22;10205;49.678;6.560;2023-05-18T00:34:07;17.10;44.00
20091;DHT22;10205;49.678;6.560;2023-05-18T00:36:35;17.00;44.00
20091;DHT22;10205;49.678;6.560;2023-05-18T00:39:05;17.00;44.10
20091;DHT22;10205;49.678;6.560;2023-05-18T00:41:33;16.90;44.20
20091;DHT22;10205;49.678;6.560;2023-05-18T00:44:01;16.90;44.20
20091;DHT22;10205;49.678;6.560;2023-05-18T00:46:29;16.80;44.20
20091;DHT22;10205;49.678;6.560;2023-05-18T00:48:56;16.80;44.20
20091;DHT22;10205;49.678;6.560;2023-05-18T00:51:24;16.80;44.30
20091;DHT22;10205;49.678;6.560;2023-05-18T00:53:52;16.70;44.30
20091;DHT22;10205;49.678;6.560;2023-05-18T00:56:22;16.70;44.50
20091;DHT22;10205;49.678;6.560;2023-05-18T00:58:51;16.60;44.50
20091;DHT22;10205;49.678;6.560;2023-05-18T01:01:21;16.60;44.60
20091;DHT22;10205;49.678;6.560;2023-05-18T01:03:52;16.50;44.50
20091;DHT22;10205;49.678;6.560;2023-05-18T01:06:21;16.50;44.50
20091;DHT22;10205;49.678;6.560;2023-05-18T01:08:51;16.50;44.70
20091;DHT22;10205;49.678;6.560;2023-05-18T01:11:28;16.50;44.70
20091;DHT22;10205;49.678;6.560;2023-05-18T01:14:08;16.40;44.90
20091;DHT22;10205;49.678;6.560;2023-05-18T01:16:44;16.30;44.90
20091;DHT22;10205;49.678;6.560;2023-05-18T01:22:37;16.30;45.00
20091;DHT22;10205;49.678;6.560;2023-05-18T01:25:20;16.20;44.90
20091;DHT22;10205;49.678;6.560;2023-05-18T01:28:06;16.20;45.00
20091;DHT22;10205;49.678;6.560;2023-05-18T01:30:42;16.10;45.00
20091;DHT22;10205;49.678;6.560;2023-05-18T01:33:11;16.10;44.90
20091;DHT22;10205;49.678;6.560;2023-05-18T01:35:39;16.00;45.00
20091;DHT22;10205;49.678;6.560;2023-05-18T01:38:13;16.00;45.00
20091;DHT22;10205;49.678;6.560;2023-05-18T01:40:47;16.00;45.10
20091;DHT22;10205;49.678;6.560;2023-05-18T01:43:27;15.90;45.30
20091;DHT22;10205;49.678;6.560;2023-05-18T01:46:04;15.90;45.40
20091;DHT22;10205;49.678;6.560;2023-05-18T01:48:43;15.80;45.40
20091;DHT22;10205;49.678;6.560;2023-05-18T01:51:15;15.80;45.40
20091;DHT22;10205;49.678;6.560;2023-05-18T01:53:51;15.80;45.40
20091;DHT22;10205;49.678;6.560;2023-05-18T01:56:25;15.70;45.50
20091;DHT22;10205;49.678;6.560;2023-05-18T01:58:55;15.70;45.40
20091;DHT22;10205;49.678;6.560;2023-05-18T02:01:24;15.70;45.50
20091;DHT22;10205;49.678;6.560;2023-05-18T02:03:51;15.60;45.50
20091;DHT22;10205;49.678;6.560;2023-05-18T02:06:18;15.60;45.50
20091;DHT22;10205;49.678;6.560;2023-05-18T02:08:45;15.50;45.60
20091;DHT22;10205;49.678;6.560;2023-05-18T02:11:13;15.50;45.70
20091;DHT22;10205;49.678;6.560;2023-05-18T02:13:40;15.50;45.70
20091;DHT22;10205;49.678;6.560;2023-05-18T02:16:08;15.40;45.60
20091;DHT22;10205;49.678;6.560;2023-05-18T02:18:36;15.40;45.70
20091;DHT22;10205;49.678;6.560;2023-05-18T02:21:03;15.40;45.70
20091;DHT22;10205;49.678;6.560;2023-05-18T02:23:30;15.30;45.70
20091;DHT22;10205;49.678;6.560;2023-05-18T02:25:58;15.30;45.80
20091;DHT22;10205;49.678;6.560;2023-05-18T02:28:25;15.20;45.80
20091;DHT22;10205;49.678;6.560;2023-05-18T02:30:52;15.20;45.90
20091;DHT22;10205;49.678;6.560;2023-05-18T02:33:20;15.20;45.90
20091;DHT22;10205;49.678;6.560;2023-05-18T02:35:51;15.10;46.00
20091;DHT22;10205;49.678;6.560;2023-05-18T02:38:18;15.10;46.00
20091;DHT22;10205;49.678;6.560;2023-05-18T02:40:46;15.00;45.90
20091;DHT22;10205;49.678;6.560;2023-05-18T02:43:13;15.00;46.00
20091;DHT22;10205;49.678;6.560;2023-05-18T02:45:40;15.00;46.00
20091;DHT22;10205;49.678;6.560;2023-05-18T02:48:07;15.00;46.10
20091;DHT22;10205;49.678;6.560;2023-05-18T02:50:36;14.90;46.00
20091;DHT22;10205;49.678;6.560;2023-05-18T02:53:03;14.90;46.20
20091;DHT22;10205;49.678;6.560;2023-05-18T02:55:30;14.80;46.10
20091;DHT22;10205;49.678;6.560;2023-05-18T02:57:57;14.80;46.20
20091;DHT22;10205;49.678;6.560;2023-05-18T03:00:24;14.80;46.20
20091;DHT22;10205;49.678;6.560;2023-05-18T03:02:53;14.70;46.30
20091;DHT22;10205;49.678;6.560;2023-05-18T03:05:22;14.70;46.30
20091;DHT22;10205;49.678;6.560;2023-05-18T03:07:50;14.70;46.30
20091;DHT22;10205;49.678;6.560;2023-05-18T03:10:19;14.60;46.40
20091;DHT22;10205;49.678;6.560;2023-05-18T03:12:46;14.60;46.40
20091;DHT22;10205;49.678;6.560;2023-05-18T03:15:14;14.60;46.50
20091;DHT22;10205;49.678;6.560;2023-05-18T03:17:41;14.50;46.40
20091;DHT22;10205;49.678;6.560;2023-05-18T03:20:09;14.50;46.50
20091;DHT22;10205;49.678;6.560;2023-05-18T03:22:39;14.50;46.60
20091;DHT22;10205;49.678;6.560;2023-05-18T03:25:08;14.40;46.50
20091;DHT22;10205;49.678;6.560;2023-05-18T03:27:35;14.40;46.70
20091;DHT22;10205;49.678;6.560;2023-05-18T03:30:03;14.40;46.80
20091;DHT22;10205;49.678;6.560;2023-05-18T03:32:30;14.30;46.70
20091;DHT22;10205;49.678;6.560;2023-05-18T03:34:58;14.30;46.80
20091;DHT22;10205;49.678;6.560;2023-05-18T03:37:26;14.30;46.90
20091;DHT22;10205;49.678;6.560;2023-05-18T03:39:57;14.20;46.80
20091;DHT22;10205;49.678;6.560;2023-05-18T03:42:26;14.20;46.90
20091;DHT22;10205;49.678;6.560;2023-05-18T03:44:53;14.10;47.00
20091;DHT22;10205;49.678;6.560;2023-05-18T03:47:20;14.10;47.00
20091;DHT22;10205;49.678;6.560;2023-05-18T03:49:48;14.10;47.10
20091;DHT22;10205;49.678;6.560;2023-05-18T03:52:15;14.10;47.10
20091;DHT22;10205;49.678;6.560;2023-05-18T03:54:47;14.00;47.50
20091;DHT22;10205;49.678;6.560;2023-05-18T03:57:17;14.00;47.10
20091;DHT22;10205;49.678;6.560;2023-05-18T03:59:45;14.00;47.20
20091;DHT22;10205;49.678;6.560;2023-05-18T04:02:12;13.90;47.30
20091;DHT22;10205;49.678;6.560;2023-05-18T04:04:41;13.90;47.30
20091;DHT22;10205;49.678;6.560;2023-05-18T04:07:10;13.90;47.30
20091;DHT22;10205;49.678;6.560;2023-05-18T04:09:38;13.80;47.30
20091;DHT22;10205;49.678;6.560;2023-05-18T04:12:05;13.80;47.40
20091;DHT22;10205;49.678;6.560;2023-05-18T04:14:33;13.80;47.50
20091;DHT22;10205;49.678;6.560;2023-05-18T04:17:02;13.80;47.60
20091;DHT22;10205;49.678;6.560;2023-05-18T04:19:30;13.70;47.70
20091;DHT22;10205;49.678;6.560;2023-05-18T04:21:58;13.70;47.60
20091;DHT22;10205;49.678;6.560;2023-05-18T04:24:29;13.70;47.60
20091;DHT22;10205;49.678;6.560;2023-05-18T04:26:57;13.70;47.60
20091;DHT22;10205;49.678;6.560;2023-05-18T04:29:25;13.60;47.60
20091;DHT22;10205;49.678;6.560;2023-05-18T04:31:53;13.60;47.70
20091;DHT22;10205;49.678;6.560;2023-05-18T04:34:27;13.50;47.70
20091;DHT22;10205;49.678;6.560;2023-05-18T04:36:55;13.50;47.70
20091;DHT22;10205;49.678;6.560;2023-05-18T04:39:23;13.50;47.70
20091;DHT22;10205;49.678;6.560;2023-05-18T04:41:52;13.50;47.80
20091;DHT22;10205;49.678;6.560;2023-05-18T04:44:22;13.40;47.90
20091;DHT22;10205;49.678;6.560;2023-05-18T04:46:50;13.40;47.90
20091;DHT22;10205;49.678;6.560;2023-05-18T04:49:17;13.40;48.10
20091;DHT22;10205;49.678;6.560;2023-05-18T04:51:48;13.30;48.00
20091;DHT22;10205;49.678;6.560;2023-05-18T04:54:20;13.30;48.40
20091;DHT22;10205;49.678;6.560;2023-05-18T04:56:48;13.20;48.30
20091;DHT22;10205;49.678;6.560;2023-05-18T04:59:16;13.20;48.20
20091;DHT22;10205;49.678;6.560;2023-05-18T05:01:43;13.20;48.30
20091;DHT22;10205;49.678;6.560;2023-05-18T05:04:10;13.10;48.40
20091;DHT22;10205;49.678;6.560;2023-05-18T05:06:38;13.10;48.50
20091;DHT22;10205;49.678;6.560;2023-05-18T05:09:06;13.10;48.60
20091;DHT22;10205;49.678;6.560;2023-05-18T05:11:33;13.00;48.80
20091;DHT22;10205;49.678;6.560;2023-05-18T05:14:00;12.90;48.70
20091;DHT22;10205;49.678;6.560;2023-05-18T05:16:28;12.90;48.90
20091;DHT22;10205;49.678;6.560;2023-05-18T05:18:55;12.80;49.10
20091;DHT22;10205;49.678;6.560;2023-05-18T05:21:22;12.80;49.10
20091;DHT22;10205;49.678;6.560;2023-05-18T05:23:49;12.80;49.30
20091;DHT22;10205;49.678;6.560;2023-05-18T05:26:18;12.70;49.30
20091;DHT22;10205;49.678;6.560;2023-05-18T05:28:45;12.70;49.60
20091;DHT22;10205;49.678;6.560;2023-05-18T05:31:13;12.70;49.70
20091;DHT22;10205;49.678;6.560;2023-05-18T05:33:41;12.60;49.90
20091;DHT22;10205;49.678;6.560;2023-05-18T05:36:09;12.60;50.00
20091;DHT22;10205;49.678;6.560;2023-05-18T05:38:36;12.60;50.20
20091;DHT22;10205;49.678;6.560;2023-05-18T05:41:03;12.50;50.20
20091;DHT22;10205;49.678;6.560;2023-05-18T05:43:32;12.50;50.20
20091;DHT22;10205;49.678;6.560;2023-05-18T05:45:59;12.50;50.50
20091;DHT22;10205;49.678;6.560;2023-05-18T05:48:26;12.40;50.30
20091;DHT22;10205;49.678;6.560;2023-05-18T05:50:53;12.40;50.40
20091;DHT22;10205;49.678;6.560;2023-05-18T05:53:20;12.40;50.60
20091;DHT22;10205;49.678;6.560;2023-05-18T05:55:48;12.40;50.70
20091;DHT22;10205;49.678;6.560;2023-05-18T05:58:15;12.40;50.60
20091;DHT22;10205;49.678;6.560;2023-05-18T06:00:43;12.40;50.70
20091;DHT22;10205;49.678;6.560;2023-05-18T06:03:10;12.40;50.80
20091;DHT22;10205;49.678;6.560;2023-05-18T06:05:37;12.40;50.70
20091;DHT22;10205;49.678;6.560;2023-05-18T06:08:04;12.40;51.00
20091;DHT22;10205;49.678;6.560;2023-05-18T06:10:31;12.40;51.10
20091;DHT22;10205;49.678;6.560;2023-05-18T06:12:58;12.40;51.10
20091;DHT22;10205;49.678;6.560;2023-05-18T06:15:25;12.40;51.10
20091;DHT22;10205;49.678;6.560;2023-05-18T06:17:54;12.40;51.20
20091;DHT22;10205;49.678;6.560;2023-05-18T06:20:21;12.40;51.20
20091;DHT22;10205;49.678;6.560;2023-05-18T06:22:48;12.40;51.20
20091;DHT22;10205;49.678;6.560;2023-05-18T06:25:15;12.40;51.30
20091;DHT22;10205;49.678;6.560;2023-05-18T06:27:42;12.40;51.30
20091;DHT22;10205;49.678;6.560;2023-05-18T06:30:11;12.50;51.50
20091;DHT22;10205;49.678;6.560;2023-05-18T06:32:38;12.50;51.50
20091;DHT22;10205;49.678;6.560;2023-05-18T06:35:07;12.50;51.40
20091;DHT22;10205;49.678;6.560;2023-05-18T06:37:35;12.50;51.70
20091;DHT22;10205;49.678;6.560;2023-05-18T06:40:02;12.60;51.60
20091;DHT22;10205;49.678;6.560;2023-05-18T06:42:31;12.60;51.70
20091;DHT22;10205;49.678;6.560;2023-05-18T06:44:58;12.60;51.70
20091;DHT22;10205;49.678;6.560;2023-05-18T06:47:25;12.60;51.70
20091;DHT22;10205;49.678;6.560;2023-05-18T06:49:53;12.70;51.70
20091;DHT22;10205;49.678;6.560;2023-05-18T06:52:22;12.70;51.70
20091;DHT22;10205;49.678;6.560;2023-05-18T06:54:49;12.80;51.80
20091;DHT22;10205;49.678;6.560;2023-05-18T06:57:16;12.80;51.90
20091;DHT22;10205;49.678;6.560;2023-05-18T06:59:43;12.80;51.80
20091;DHT22;10205;49.678;6.560;2023-05-18T07:02:10;12.90;51.90
20091;DHT22;10205;49.678;6.560;2023-05-18T07:04:37;12.90;51.90
20091;DHT22;10205;49.678;6.560;2023-05-18T07:07:07;13.00;52.20
20091;DHT22;10205;49.678;6.560;2023-05-18T07:09:35;13.00;52.00
20091;DHT22;10205;49.678;6.560;2023-05-18T07:12:03;13.10;52.00
20091;DHT22;10205;49.678;6.560;2023-05-18T07:14:30;13.10;52.00
20091;DHT22;10205;49.678;6.560;2023-05-18T07:16:57;13.20;51.90
20091;DHT22;10205;49.678;6.560;2023-05-18T07:19:24;13.20;51.80
20091;DHT22;10205;49.678;6.560;2023-05-18T07:21:51;13.30;51.90
20091;DHT22;10205;49.678;6.560;2023-05-18T07:24:18;13.40;51.90
20091;DHT22;10205;49.678;6.560;2023-05-18T07:26:46;13.40;51.80
20091;DHT22;10205;49.678;6.560;2023-05-18T07:29:13;13.50;51.80
20091;DHT22;10205;49.678;6.560;2023-05-18T07:31:40;13.50;51.70
20091;DHT22;10205;49.678;6.560;2023-05-18T07:34:08;13.60;51.70
20091;DHT22;10205;49.678;6.560;2023-05-18T07:36:35;13.70;51.80
20091;DHT22;10205;49.678;6.560;2023-05-18T07:39:02;13.70;51.60
20091;DHT22;10205;49.678;6.560;2023-05-18T07:41:29;13.80;51.50
20091;DHT22;10205;49.678;6.560;2023-05-18T07:43:58;13.90;51.50
20091;DHT22;10205;49.678;6.560;2023-05-18T07:46:25;13.90;51.50
20091;DHT22;10205;49.678;6.560;2023-05-18T07:48:52;14.00;52.10
20091;DHT22;10205;49.678;6.560;2023-05-18T07:51:19;14.10;51.50
20091;DHT22;10205;49.678;6.560;2023-05-18T07:53:46;14.20;51.40
20091;DHT22;10205;49.678;6.560;2023-05-18T07:56:13;14.20;51.30
20091;DHT22;10205;49.678;6.560;2023-05-18T07:58:40;14.30;51.40
20091;DHT22;10205;49.678;6.560;2023-05-18T08:01:08;14.40;51.40
20091;DHT22;10205;49.678;6.560;2023-05-18T08:03:35;14.40;51.40
20091;DHT22;10205;49.678;6.560;2023-05-18T08:06:03;14.50;51.20
20091;DHT22;10205;49.678;6.560;2023-05-18T08:08:30;14.60;51.30
20091;DHT22;10205;49.678;6.560;2023-05-18T08:11:00;14.70;51.20
20091;DHT22;10205;49.678;6.560;2023-05-18T08:13:27;14.80;51.20
20091;DHT22;10205;49.678;6.560;2023-05-18T08:15:55;14.80;51.20
20091;DHT22;10205;49.678;6.560;2023-05-18T08:18:23;14.90;51.20
20091;DHT22;10205;49.678;6.560;2023-05-18T08:20:52;15.00;51.30
20091;DHT22;10205;49.678;6.560;2023-05-18T08:23:20;15.10;51.10
20091;DHT22;10205;49.678;6.560;2023-05-18T08:25:47;15.20;51.10
20091;DHT22;10205;49.678;6.560;2023-05-18T08:28:14;15.30;51.20
20091;DHT22;10205;49.678;6.560;2023-05-18T08:30:41;15.30;51.00
20091;DHT22;10205;49.678;6.560;2023-05-18T08:33:08;15.40;50.90
20091;DHT22;10205;49.678;6.560;2023-05-18T08:35:37;15.50;50.90
20091;DHT22;10205;49.678;6.560;2023-05-18T08:38:04;15.60;50.90
20091;DHT22;10205;49.678;6.560;2023-05-18T08:40:33;15.70;50.80
20091;DHT22;10205;49.678;6.560;2023-05-18T08:43:11;15.80;50.70
20091;DHT22;10205;49.678;6.560;2023-05-18T08:45:49;15.90;50.60
20091;DHT22;10205;49.678;6.560;2023-05-18T08:48:21;16.00;50.50
20091;DHT22;10205;49.678;6.560;2023-05-18T08:50:50;16.10;50.30
20091;DHT22;10205;49.678;6.560;2023-05-18T08:53:23;16.20;51.00
20091;DHT22;10205;49.678;6.560;2023-05-18T08:55:53;16.30;50.90
20091;DHT22;10205;49.678;6.560;2023-05-18T08:58:35;16.30;50.00
20091;DHT22;10205;49.678;6.560;2023-05-18T09:01:09;16.50;50.10
20091;DHT22;10205;49.678;6.560;2023-05-18T09:03:37;16.60;49.90
20091;DHT22;10205;49.678;6.560;2023-05-18T09:06:07;16.60;49.70
20091;DHT22;10205;49.678;6.560;2023-05-18T09:08:35;16.70;49.40
20091;DHT22;10205;49.678;6.560;2023-05-18T09:11:03;16.90;49.50
20091;DHT22;10205;49.678;6.560;2023-05-18T09:13:31;16.90;49.00
20091;DHT22;10205;49.678;6.560;2023-05-18T09:15:58;17.00;49.00
20091;DHT22;10205;49.678;6.560;2023-05-18T09:18:25;17.10;48.70
20091;DHT22;10205;49.678;6.560;2023-05-18T09:20:52;17.20;48.50
20091;DHT22;10205;49.678;6.560;2023-05-18T09:23:21;17.30;48.20
20091;DHT22;10205;49.678;6.560;2023-05-18T09:25:49;17.40;48.00
20091;DHT22;10205;49.678;6.560;2023-05-18T09:28:26;17.50;47.90
20091;DHT22;10205;49.678;6.560;2023-05-18T09:30:56;17.60;47.10
20091;DHT22;10205;49.678;6.560;2023-05-18T09:33:23;17.70;47.30
20091;DHT22;10205;49.678;6.560;2023-05-18T09:35:51;17.90;47.40
20091;DHT22;10205;49.678;6.560;2023-05-18T09:38:22;18.00;47.20
20091;DHT22;10205;49.678;6.560;2023-05-18T09:40:49;18.00;47.00
20091;DHT22;10205;49.678;6.560;2023-05-18T09:43:16;18.20;46.80
20091;DHT22;10205;49.678;6.560;2023-05-18T09:45:45;18.30;46.30
20091;DHT22;10205;49.678;6.560;2023-05-18T09:48:15;18.40;46.10
20091;DHT22;10205;49.678;6.560;2023-05-18T09:50:43;18.40;46.40
20091;DHT22;10205;49.678;6.560;2023-05-18T09:53:13;18.50;46.30
20091;DHT22;10205;49.678;6.560;2023-05-18T09:55:46;18.60;46.20
20091;DHT22;10205;49.678;6.560;2023-05-18T09:58:14;18.70;45.80
20091;DHT22;10205;49.678;6.560;2023-05-18T10:00:43;18.80;45.90
20091;DHT22;10205;49.678;6.560;2023-05-18T10:03:17;18.90;45.60
20091;DHT22;10205;49.678;6.560;2023-05-18T10:05:46;19.00;45.70
20091;DHT22;10205;49.678;6.560;2023-05-18T10:08:14;19.10;45.40
20091;DHT22;10205;49.678;6.560;2023-05-18T10:10:46;19.10;45.00
20091;DHT22;10205;49.678;6.560;2023-05-18T10:13:16;19.20;44.90
20091;DHT22;10205;49.678;6.560;2023-05-18T10:15:46;19.40;45.00
20091;DHT22;10205;49.678;6.560;2023-05-18T10:18:21;19.40;45.00
20091;DHT22;10205;49.678;6.560;2023-05-18T10:20:50;19.50;44.90
20091;DHT22;10205;49.678;6.560;2023-05-18T10:23:20;19.60;44.40
20091;DHT22;10205;49.678;6.560;2023-05-18T10:25:50;19.70;44.60
20091;DHT22;10205;49.678;6.560;2023-05-18T10:28:19;19.80;44.00
20091;DHT22;10205;49.678;6.560;2023-05-18T10:30:51;19.90;43.90
20091;DHT22;10205;49.678;6.560;2023-05-18T10:33:21;20.00;43.80
20091;DHT22;10205;49.678;6.560;2023-05-18T10:35:51;20.00;43.50
20091;DHT22;10205;49.678;6.560;2023-05-18T10:38:19;20.10;43.40
20091;DHT22;10205;49.678;6.560;2023-05-18T10:40:51;20.20;43.60
20091;DHT22;10205;49.678;6.560;2023-05-18T10:43:22;20.20;43.10
20091;DHT22;10205;49.678;6.560;2023-05-18T10:45:54;20.30;43.10
20091;DHT22;10205;49.678;6.560;2023-05-18T10:48:23;20.40;42.80
20091;DHT22;10205;49.678;6.560;2023-05-18T10:50:52;20.40;42.90
20091;DHT22;10205;49.678;6.560;2023-05-18T10:53:21;20.50;42.90
20091;DHT22;10205;49.678;6.560;2023-05-18T10:55:53;20.60;42.50
20091;DHT22;10205;49.678;6.560;2023-05-18T10:58:22;20.70;42.40
20091;DHT22;10205;49.678;6.560;2023-05-18T11:00:54;20.80;42.20
20091;DHT22;10205;49.678;6.560;2023-05-18T11:03:24;20.90;42.00
20091;DHT22;10205;49.678;6.560;2023-05-18T11:06:03;21.00;42.00
20091;DHT22;10205;49.678;6.560;2023-05-18T11:08:32;21.00;41.50
20091;DHT22;10205;49.678;6.560;2023-05-18T11:11:03;21.20;41.70
20091;DHT22;10205;49.678;6.560;2023-05-18T11:13:33;21.20;41.70
20091;DHT22;10205;49.678;6.560;2023-05-18T11:16:06;21.30;41.40
20091;DHT22;10205;49.678;6.560;2023-05-18T11:18:42;21.40;41.30
20091;DHT22;10205;49.678;6.560;2023-05-18T11:21:30;21.40;41.00
20091;DHT22;10205;49.678;6.560;2023-05-18T11:24:23;21.50;41.30
20091;DHT22;10205;49.678;6.560;2023-05-18T11:26:57;21.60;41.00
20091;DHT22;10205;49.678;6.560;2023-05-18T11:29:33;21.70;40.50
20091;DHT22;10205;49.678;6.560;2023-05-18T11:32:02;21.80;40.20
20091;DHT22;10205;49.678;6.560;2023-05-18T11:34:43;21.90;40.60
20091;DHT22;10205;49.678;6.560;2023-05-18T11:37:13;21.90;39.90
20091;DHT22;10205;49.678;6.560;2023-05-18T11:39:40;22.00;40.40
20091;DHT22;10205;49.678;6.560;2023-05-18T11:42:10;22.10;40.60
20091;DHT22;10205;49.678;6.560;2023-05-18T11:44:39;22.10;39.60
20091;DHT22;10205;49.678;6.560;2023-05-18T11:47:08;22.30;39.80
20091;DHT22;10205;49.678;6.560;2023-05-18T11:49:40;22.30;39.30
20091;DHT22;10205;49.678;6.560;2023-05-18T11:52:15;22.40;39.70
20091;DHT22;10205;49.678;6.560;2023-05-18T11:54:45;22.50;39.30
20091;DHT22;10205;49.678;6.560;2023-05-18T11:57:17;22.50;39.10
20091;DHT22;10205;49.678;6.560;2023-05-18T11:59:47;22.60;39.20
20091;DHT22;10205;49.678;6.560;2023-05-18T12:02:20;22.60;38.50
20091;DHT22;10205;49.678;6.560;2023-05-18T12:04:50;22.70;39.10
20091;DHT22;10205;49.678;6.560;2023-05-18T12:07:18;22.70;38.60
20091;DHT22;10205;49.678;6.560;2023-05-18T12:09:46;22.80;38.50
20091;DHT22;10205;49.678;6.560;2023-05-18T12:12:16;22.80;38.40
20091;DHT22;10205;49.678;6.560;2023-05-18T12:14:47;22.90;38.20
20091;DHT22;10205;49.678;6.560;2023-05-18T12:17:20;22.90;38.10
20091;DHT22;10205;49.678;6.560;2023-05-18T12:19:48;23.00;38.20
20091;DHT22;10205;49.678;6.560;2023-05-18T12:22:16;23.00;38.00
20091;DHT22;10205;49.678;6.560;2023-05-18T12:24:43;23.10;38.20
20091;DHT22;10205;49.678;6.560;2023-05-18T12:27:11;23.10;37.70
20091;DHT22;10205;49.678;6.560;2023-05-18T12:29:41;23.20;37.50
20091;DHT22;10205;49.678;6.560;2023-05-18T12:32:09;23.30;37.10
20091;DHT22;10205;49.678;6.560;2023-05-18T12:34:37;23.30;37.00
20091;DHT22;10205;49.678;6.560;2023-05-18T12:37:05;23.40;37.10
20091;DHT22;10205;49.678;6.560;2023-05-18T12:39:33;23.40;36.80
20091;DHT22;10205;49.678;6.560;2023-05-18T12:42:11;23.40;36.60
20091;DHT22;10205;49.678;6.560;2023-05-18T12:44:42;23.50;36.60
20091;DHT22;10205;49.678;6.560;2023-05-18T12:47:11;23.60;36.50
20091;DHT22;10205;49.678;6.560;2023-05-18T12:49:41;23.60;36.40
20091;DHT22;10205;49.678;6.560;2023-05-18T12:52:14;23.60;36.50
20091;DHT22;10205;49.678;6.560;2023-05-18T12:54:52;23.70;36.20
20091;DHT22;10205;49.678;6.560;2023-05-18T12:57:24;23.80;35.40
20091;DHT22;10205;49.678;6.560;2023-05-18T12:59:53;23.80;36.20
20091;DHT22;10205;49.678;6.560;2023-05-18T13:02:31;23.90;36.00
20091;DHT22;10205;49.678;6.560;2023-05-18T13:05:04;23.90;35.60
20091;DHT22;10205;49.678;6.560;2023-05-18T13:07:34;24.00;35.50
20091;DHT22;10205;49.678;6.560;2023-05-18T13:10:07;24.00;35.40
20091;DHT22;10205;49.678;6.560;2023-05-18T13:12:38;24.10;34.90
20091;DHT22;10205;49.678;6.560;2023-05-18T13:15:15;24.10;35.40
20091;DHT22;10205;49.678;6.560;2023-05-18T13:17:53;24.20;34.90
20091;DHT22;10205;49.678;6.560;2023-05-18T13:20:22;24.20;35.30
20091;DHT22;10205;49.678;6.560;2023-05-18T13:22:49;24.30;35.20
20091;DHT22;10205;49.678;6.560;2023-05-18T13:25:17;24.30;35.20
20091;DHT22;10205;49.678;6.560;2023-05-18T13:27:44;24.40;35.00
20091;DHT22;10205;49.678;6.560;2023-05-18T13:30:14;24.40;34.80
20091;DHT22;10205;49.678;6.560;2023-05-18T13:32:41;24.40;34.20
20091;DHT22;10205;49.678;6.560;2023-05-18T13:35:09;24.50;34.00
20091;DHT22;10205;49.678;6.560;2023-05-18T13:37:36;24.50;34.00
20091;DHT22;10205;49.678;6.560;2023-05-18T13:40:04;24.50;34.40
20091;DHT22;10205;49.678;6.560;2023-05-18T13:42:33;24.60;34.80
20091;DHT22;10205;49.678;6.560;2023-05-18T13:45:00;24.60;34.20
20091;DHT22;10205;49.678;6.560;2023-05-18T13:47:28;24.70;34.10
20091;DHT22;10205;49.678;6.560;2023-05-18T13:49:55;24.70;34.00
20091;DHT22;10205;49.678;6.560;2023-05-18T13:52:22;24.70;34.50
20091;DHT22;10205;49.678;6.560;2023-05-18T13:54:49;24.70;34.10
20091;DHT22;10205;49.678;6.560;2023-05-18T13:57:16;24.70;34.00
20091;DHT22;10205;49.678;6.560;2023-05-18T13:59:43;24.80;34.10
20091;DHT22;10205;49.678;6.560;2023-05-18T14:02:13;24.80;34.70
20091;DHT22;10205;49.678;6.560;2023-05-18T14:04:41;24.80;33.80
20091;DHT22;10205;49.678;6.560;2023-05-18T14:07:08;24.80;34.00
20091;DHT22;10205;49.678;6.560;2023-05-18T14:09:35;24.90;33.70
20091;DHT22;10205;49.678;6.560;2023-05-18T14:12:03;24.90;33.70
20091;DHT22;10205;49.678;6.560;2023-05-18T14:14:30;25.00;33.40
20091;DHT22;10205;49.678;6.560;2023-05-18T14:16:57;25.00;33.10
20091;DHT22;10205;49.678;6.560;2023-05-18T14:19:24;25.00;32.90
20091;DHT22;10205;49.678;6.560;2023-05-18T14:21:53;25.00;33.10
20091;DHT22;10205;49.678;6.560;2023-05-18T14:24:20;25.00;32.90
20091;DHT22;10205;49.678;6.560;2023-05-18T14:26:47;25.10;32.80
20091;DHT22;10205;49.678;6.560;2023-05-18T14:29:15;25.10;33.20
20091;DHT22;10205;49.678;6.560;2023-05-18T14:31:42;25.10;32.80
20091;DHT22;10205;49.678;6.560;2023-05-18T14:34:09;25.10;32.70
20091;DHT22;10205;49.678;6.560;2023-05-18T14:36:36;25.10;32.90
20091;DHT22;10205;49.678;6.560;2023-05-18T14:39:04;25.10;32.90
20091;DHT22;10205;49.678;6.560;2023-05-18T14:41:31;25.10;33.00
20091;DHT22;10205;49.678;6.560;2023-05-18T14:43:58;25.10;32.80
20091;DHT22;10205;49.678;6.560;2023-05-18T14:46:28;25.10;32.70
20091;DHT22;10205;49.678;6.560;2023-05-18T14:48:55;25.10;32.70
20091;DHT22;10205;49.678;6.560;2023-05-18T14:51:22;25.10;32.80
20091;DHT22;10205;49.678;6.560;2023-05-18T14:53:49;25.10;32.60
20091;DHT22;10205;49.678;6.560;2023-05-18T14:56:18;25.10;32.60
20091;DHT22;10205;49.678;6.560;2023-05-18T14:58:46;25.10;32.60
20091;DHT22;10205;49.678;6.560;2023-05-18T15:01:13;25.10;32.80
20091;DHT22;10205;49.678;6.560;2023-05-18T15:03:40;25.10;32.80
20091;DHT22;10205;49.678;6.560;2023-05-18T15:06:07;25.20;32.90
20091;DHT22;10205;49.678;6.560;2023-05-18T15:08:34;25.20;32.70
20091;DHT22;10205;49.678;6.560;2023-05-18T15:11:01;25.20;32.80
20091;DHT22;10205;49.678;6.560;2023-05-18T15:13:30;25.20;33.00
20091;DHT22;10205;49.678;6.560;2023-05-18T15:15:57;25.30;32.50
20091;DHT22;10205;49.678;6.560;2023-05-18T15:18:24;25.30;32.70
20091;DHT22;10205;49.678;6.560;2023-05-18T15:20:51;25.30;32.80
20091;DHT22;10205;49.678;6.560;2023-05-18T15:23:18;25.30;32.60
20091;DHT22;10205;49.678;6.560;2023-05-18T15:25:45;25.30;32.70
20091;DHT22;10205;49.678;6.560;2023-05-18T15:28:12;25.40;32.70
20091;DHT22;10205;49.678;6.560;2023-05-18T15:30:41;25.40;32.80
20091;DHT22;10205;49.678;6.560;2023-05-18T15:33:08;25.40;32.90
20091;DHT22;10205;49.678;6.560;2023-05-18T15:35:36;25.40;32.30
20091;DHT22;10205;49.678;6.560;2023-05-18T15:38:04;25.40;32.30
20091;DHT22;10205;49.678;6.560;2023-05-18T15:40:31;25.50;32.40
20091;DHT22;10205;49.678;6.560;2023-05-18T15:42:58;25.40;32.40
20091;DHT22;10205;49.678;6.560;2023-05-18T15:45:25;25.50;32.50